Time,TemperatureF,DewpointF,PressureIn,WindDirection,WindDirectionDegrees,WindSpeedMPH,WindSpeedGustMPH,Humidity,HourlyPrecipIn,Conditions,Clouds,dailyrainin,SoftwareType,DateUTC
2013-04-01 00:02:00,51.0,26.0,29.94,NNW,341,1.0,2.0,37,0.00,,,0.00,,2013-04-01 05:02:00,
2013-04-01 00:12:00,51.0,26.0,29.94,NNW,341,1.0,2.0,37,0.00,,,0.00,,2013-04-01 05:12:00,
2013-04-01 00:22:00,51.0,26.0,29.95,NNW,342,2.0,3.0,38,0.00,,,0.00,,2013-04-01 05:22:00,
2013-04-01 00:32:00,51.0,26.0,29.95,NNW,342,2.0,3.0,38,0.00,,,0.00,,2013-04-01 05:32:00,
2013-04-01 00:42:00,51.0,26.0,29.95,NNW,342,2.0,3.0,38,0.00,,,0.00,,2013-04-01 05:42:00,
2013-04-01 00:52:00,50.0,26.0,29.96,North,358,3.0,6.0,39,0.00,,,0.00,,2013-04-01 05:52:00,
2013-04-01 01:02:00,50.0,26.0,29.96,North,358,3.0,6.0,39,0.00,,,0.00,,2013-04-01 06:02:00,
2013-04-01 01:12:00,50.0,26.0,29.96,North,358,3.0,6.0,39,0.00,,,0.00,,2013-04-01 06:12:00,
2013-04-01 01:22:00,48.0,27.0,29.98,NNE,22,7.0,7.0,43,0.00,,,0.00,,2013-04-01 06:22:00,
2013-04-01 01:33:00,48.0,27.0,29.98,NNE,22,7.0,7.0,43,0.00,,,0.00,,2013-04-01 06:33:00,
2013-04-01 01:43:00,48.0,27.0,29.98,NNE,22,7.0,7.0,43,0.00,,,0.00,,2013-04-01 06:43:00,
2013-04-01 01:52:00,46.0,29.0,30.01,North,5,8.0,9.0,51,0.00,,,0.00,,2013-04-01 06:52:00,
2013-04-01 02:02:00,46.0,29.0,30.01,North,5,8.0,9.0,51,0.00,,,0.00,,2013-04-01 07:02:00,
2013-04-01 02:12:00,46.0,29.0,30.01,North,5,8.0,9.0,51,0.00,,,0.00,,2013-04-01 07:12:00,
2013-04-01 02:22:00,45.0,30.0,30.02,NNE,15,12.0,14.0,55,0.00,,,0.00,,2013-04-01 07:22:00,
2013-04-01 02:32:00,45.0,30.0,30.02,NNE,15,12.0,14.0,55,0.00,,,0.00,,2013-04-01 07:32:00,
2013-04-01 02:42:00,45.0,30.0,30.02,NNE,15,12.0,14.0,55,0.00,,,0.00,,2013-04-01 07:42:00,
2013-04-01 02:52:00,44.0,31.0,30.03,NNE,13,9.0,11.0,59,0.00,,,0.00,,2013-04-01 07:52:00,
2013-04-01 03:03:00,44.0,31.0,30.03,NNE,13,9.0,11.0,59,0.00,,,0.00,,2013-04-01 08:03:00,
2013-04-01 03:12:00,44.0,31.0,30.03,NNE,13,9.0,11.0,59,0.00,,,0.00,,2013-04-01 08:12:00,
2013-04-01 03:22:00,43.0,32.0,30.05,North,1,7.0,7.0,65,0.00,,,0.00,,2013-04-01 08:22:00,
2013-04-01 03:32:00,43.0,32.0,30.05,North,1,7.0,7.0,65,0.00,,,0.00,,2013-04-01 08:32:00,
2013-04-01 03:43:00,43.0,32.0,30.05,North,1,7.0,7.0,65,0.00,,,0.00,,2013-04-01 08:43:00,
2013-04-01 03:52:00,41.0,32.0,30.04,NNE,12,12.0,12.0,70,0.00,,,0.00,,2013-04-01 08:52:00,
2013-04-01 04:02:00,41.0,32.0,30.04,NNE,12,12.0,12.0,70,0.00,,,0.00,,2013-04-01 09:02:00,
2013-04-01 04:12:00,41.0,32.0,30.04,NNE,12,12.0,12.0,70,0.00,,,0.00,,2013-04-01 09:12:00,
2013-04-01 04:22:00,40.0,32.0,30.06,North,358,8.0,9.0,74,0.00,,,0.00,,2013-04-01 09:22:00,
2013-04-01 04:33:00,40.0,32.0,30.06,North,358,8.0,9.0,74,0.00,,,0.00,,2013-04-01 09:33:00,
2013-04-01 04:42:00,40.0,32.0,30.06,North,358,8.0,9.0,74,0.00,,,0.00,,2013-04-01 09:42:00,
2013-04-01 04:53:00,39.0,32.0,30.07,North,5,9.0,11.0,76,0.00,,,0.00,,2013-04-01 09:53:00,
2013-04-01 05:03:00,39.0,32.0,30.07,North,5,9.0,11.0,76,0.00,,,0.00,,2013-04-01 10:03:00,
2013-04-01 05:12:00,39.0,32.0,30.07,North,5,9.0,11.0,76,0.00,,,0.00,,2013-04-01 10:12:00,
2013-04-01 05:23:00,38.0,31.0,30.08,North,357,12.0,12.0,77,0.00,,,0.00,,2013-04-01 10:23:00,
2013-04-01 05:33:00,38.0,31.0,30.08,North,357,12.0,12.0,77,0.00,,,0.00,,2013-04-01 10:33:00,
2013-04-01 05:42:00,38.0,31.0,30.08,North,357,12.0,12.0,77,0.00,,,0.00,,2013-04-01 10:42:00,
2013-04-01 05:53:00,37.0,30.0,30.10,North,7,8.0,13.0,76,0.00,,,0.00,,2013-04-01 10:53:00,
2013-04-01 06:03:00,37.0,30.0,30.10,North,7,8.0,13.0,76,0.00,,,0.00,,2013-04-01 11:03:00,
2013-04-01 06:13:00,37.0,30.0,30.10,North,7,8.0,13.0,76,0.00,,,0.00,,2013-04-01 11:13:00,
2013-04-01 06:23:00,36.0,30.0,30.12,North,3,11.0,11.0,79,0.00,,,0.00,,2013-04-01 11:23:00,
2013-04-01 06:33:00,36.0,30.0,30.12,North,3,11.0,11.0,79,0.00,,,0.00,,2013-04-01 11:33:00,
2013-04-01 06:42:00,36.0,30.0,30.12,North,3,11.0,11.0,79,0.00,,,0.00,,2013-04-01 11:42:00,
2013-04-01 06:52:00,34.0,25.0,30.14,NNE,17,7.0,12.0,70,0.00,,,0.00,,2013-04-01 11:52:00,
2013-04-01 07:02:00,34.0,25.0,30.14,NNE,17,7.0,12.0,70,0.00,,,0.00,,2013-04-01 12:02:00,
2013-04-01 07:12:00,34.0,25.0,30.14,NNE,17,7.0,12.0,70,0.00,,,0.00,,2013-04-01 12:12:00,
2013-04-01 07:22:00,33.0,23.0,30.15,North,357,9.0,10.0,67,0.00,,,0.00,,2013-04-01 12:22:00,
2013-04-01 07:32:00,33.0,23.0,30.15,North,357,9.0,10.0,67,0.00,,,0.00,,2013-04-01 12:32:00,
2013-04-01 07:42:00,33.0,23.0,30.15,North,357,9.0,10.0,67,0.00,,,0.00,,2013-04-01 12:42:00,
2013-04-01 07:52:00,33.0,22.0,30.17,NNE,17,9.0,9.0,64,0.00,,,0.00,,2013-04-01 12:52:00,
2013-04-01 08:03:00,33.0,22.0,30.17,NNE,17,9.0,9.0,64,0.00,,,0.00,,2013-04-01 13:03:00,
2013-04-01 08:12:00,33.0,22.0,30.17,NNE,17,9.0,9.0,64,0.00,,,0.00,,2013-04-01 13:12:00,
2013-04-01 08:22:00,33.0,18.0,30.19,North,360,9.0,11.0,54,0.00,,,0.00,,2013-04-01 13:22:00,
2013-04-01 08:32:00,33.0,18.0,30.19,North,360,9.0,11.0,54,0.00,,,0.00,,2013-04-01 13:32:00,
2013-04-01 08:42:00,33.0,18.0,30.19,North,360,9.0,11.0,54,0.00,,,0.00,,2013-04-01 13:42:00,
2013-04-01 08:52:00,33.0,19.0,30.19,NNW,347,7.0,8.0,57,0.00,,,0.00,,2013-04-01 13:52:00,
2013-04-01 09:04:00,33.0,19.0,30.19,NNW,347,7.0,8.0,57,0.00,,,0.00,,2013-04-01 14:04:00,
2013-04-01 09:12:00,33.0,19.0,30.19,NNW,347,7.0,8.0,57,0.00,,,0.00,,2013-04-01 14:12:00,
2013-04-01 09:22:00,33.0,21.0,30.21,NNW,348,9.0,13.0,60,0.00,,,0.00,,2013-04-01 14:22:00,
2013-04-01 09:33:00,33.0,21.0,30.21,NNW,348,9.0,13.0,60,0.00,,,0.00,,2013-04-01 14:33:00,
2013-04-01 09:42:00,33.0,21.0,30.21,NNW,348,9.0,13.0,60,0.00,,,0.00,,2013-04-01 14:42:00,
2013-04-01 09:52:00,34.0,19.0,30.21,North,358,10.0,10.0,53,0.00,,,0.00,,2013-04-01 14:52:00,
2013-04-01 10:03:00,34.0,19.0,30.21,North,358,10.0,10.0,53,0.00,,,0.00,,2013-04-01 15:03:00,
2013-04-01 10:13:00,34.0,19.0,30.21,North,358,10.0,10.0,53,0.00,,,0.00,,2013-04-01 15:13:00,
2013-04-01 10:22:00,35.0,16.0,30.22,North,9,6.0,7.0,46,0.00,,,0.00,,2013-04-01 15:22:00,
2013-04-01 10:34:00,35.0,16.0,30.22,North,9,6.0,7.0,46,0.00,,,0.00,,2013-04-01 15:34:00,
2013-04-01 10:43:00,35.0,16.0,30.22,North,9,6.0,7.0,46,0.00,,,0.00,,2013-04-01 15:43:00,
2013-04-01 10:53:00,35.0,15.0,30.22,North,9,7.0,10.0,43,0.00,,,0.00,,2013-04-01 15:53:00,
2013-04-01 11:03:00,35.0,15.0,30.22,North,9,7.0,10.0,43,0.00,,,0.00,,2013-04-01 16:03:00,
2013-04-01 11:13:00,35.0,15.0,30.22,North,9,7.0,10.0,43,0.00,,,0.00,,2013-04-01 16:13:00,
2013-04-01 11:23:00,37.0,16.0,30.22,North,1,6.0,8.0,42,0.00,,,0.00,,2013-04-01 16:23:00,
2013-04-01 11:33:00,37.0,16.0,30.22,North,1,6.0,8.0,42,0.00,,,0.00,,2013-04-01 16:33:00,
2013-04-01 11:42:00,37.0,16.0,30.22,North,1,6.0,8.0,42,0.00,,,0.00,,2013-04-01 16:42:00,
2013-04-01 11:52:00,37.0,12.0,30.22,NNE,27,6.0,11.0,35,0.00,,,0.00,,2013-04-01 16:52:00,
2013-04-01 12:03:00,37.0,12.0,30.22,NNE,27,6.0,11.0,35,0.00,,,0.00,,2013-04-01 17:03:00,
2013-04-01 12:12:00,37.0,12.0,30.22,NNE,27,6.0,11.0,35,0.00,,,0.00,,2013-04-01 17:12:00,
2013-04-01 12:22:00,39.0,15.0,30.23,North,3,7.0,7.0,37,0.00,,,0.00,,2013-04-01 17:22:00,
2013-04-01 12:32:00,39.0,15.0,30.23,North,3,7.0,7.0,37,0.00,,,0.00,,2013-04-01 17:32:00,
2013-04-01 12:42:00,39.0,15.0,30.23,North,3,7.0,7.0,37,0.00,,,0.00,,2013-04-01 17:42:00,
2013-04-01 12:52:00,40.0,15.0,30.23,NNE,32,4.0,9.0,35,0.00,,,0.00,,2013-04-01 17:52:00,
2013-04-01 13:02:00,40.0,15.0,30.23,NNE,32,4.0,9.0,35,0.00,,,0.00,,2013-04-01 18:02:00,
2013-04-01 13:12:00,40.0,15.0,30.23,NNE,32,4.0,9.0,35,0.00,,,0.00,,2013-04-01 18:12:00,
2013-04-01 13:22:00,40.0,16.0,30.22,NNE,16,9.0,9.0,37,0.00,,,0.00,,2013-04-01 18:22:00,
2013-04-01 13:32:00,40.0,16.0,30.22,NNE,16,9.0,9.0,37,0.00,,,0.00,,2013-04-01 18:32:00,
2013-04-01 13:42:00,40.0,16.0,30.22,NNE,16,9.0,9.0,37,0.00,,,0.00,,2013-04-01 18:42:00,
2013-04-01 13:52:00,41.0,15.0,30.22,North,358,12.0,17.0,34,0.00,,,0.00,,2013-04-01 18:52:00,
2013-04-01 14:03:00,41.0,15.0,30.22,North,358,12.0,17.0,34,0.00,,,0.00,,2013-04-01 19:03:00,
2013-04-01 14:12:00,41.0,15.0,30.22,North,358,12.0,17.0,34,0.00,,,0.00,,2013-04-01 19:12:00,
2013-04-01 14:23:00,42.0,12.0,30.22,NNW,345,5.0,8.0,29,0.00,,,0.00,,2013-04-01 19:23:00,
2013-04-01 14:32:00,42.0,12.0,30.22,NNW,345,5.0,8.0,29,0.00,,,0.00,,2013-04-01 19:32:00,
2013-04-01 14:42:00,42.0,12.0,30.22,NNW,345,5.0,8.0,29,0.00,,,0.00,,2013-04-01 19:42:00,
2013-04-01 14:53:00,43.0,10.0,30.22,North,358,8.0,8.0,25,0.00,,,0.00,,2013-04-01 19:53:00,
2013-04-01 15:02:00,43.0,10.0,30.22,North,358,8.0,8.0,25,0.00,,,0.00,,2013-04-01 20:02:00,
2013-04-01 15:12:00,43.0,10.0,30.22,North,358,8.0,8.0,25,0.00,,,0.00,,2013-04-01 20:12:00,
2013-04-01 15:22:00,44.0,12.0,30.22,North,2,10.0,11.0,27,0.00,,,0.00,,2013-04-01 20:22:00,
2013-04-01 15:32:00,44.0,12.0,30.22,North,2,10.0,11.0,27,0.00,,,0.00,,2013-04-01 20:32:00,
2013-04-01 15:42:00,44.0,12.0,30.22,North,2,10.0,11.0,27,0.00,,,0.00,,2013-04-01 20:42:00,
2013-04-01 15:52:00,44.0,15.0,30.21,North,357,4.0,9.0,30,0.00,,,0.00,,2013-04-01 20:52:00,
2013-04-01 16:02:00,44.0,15.0,30.21,North,357,4.0,9.0,30,0.00,,,0.00,,2013-04-01 21:02:00,
2013-04-01 16:12:00,44.0,15.0,30.21,North,357,4.0,9.0,30,0.00,,,0.00,,2013-04-01 21:12:00,
2013-04-01 16:22:00,45.0,15.0,30.19,NNW,343,6.0,7.0,29,0.00,,,0.00,,2013-04-01 21:22:00,
2013-04-01 16:32:00,45.0,15.0,30.19,NNW,343,6.0,7.0,29,0.00,,,0.00,,2013-04-01 21:32:00,
2013-04-01 16:43:00,45.0,15.0,30.19,NNW,343,6.0,7.0,29,0.00,,,0.00,,2013-04-01 21:43:00,
2013-04-01 16:52:00,44.0,13.0,30.18,North,353,6.0,8.0,28,0.00,,,0.00,,2013-04-01 21:52:00,
2013-04-01 17:02:00,44.0,13.0,30.18,North,353,6.0,8.0,28,0.00,,,0.00,,2013-04-01 22:02:00,
2013-04-01 17:12:00,44.0,13.0,30.18,North,353,6.0,8.0,28,0.00,,,0.00,,2013-04-01 22:12:00,
2013-04-01 17:22:00,45.0,16.0,30.18,NNE,25,4.0,4.0,31,0.00,,,0.00,,2013-04-01 22:22:00,
2013-04-01 17:33:00,45.0,16.0,30.18,NNE,25,4.0,4.0,31,0.00,,,0.00,,2013-04-01 22:33:00,
2013-04-01 17:43:00,45.0,16.0,30.18,NNE,25,4.0,4.0,31,0.00,,,0.00,,2013-04-01 22:43:00,
2013-04-01 17:52:00,44.0,14.0,30.17,North,6,5.0,8.0,29,0.00,,,0.00,,2013-04-01 22:52:00,
2013-04-01 18:02:00,44.0,14.0,30.17,North,6,5.0,8.0,29,0.00,,,0.00,,2013-04-01 23:02:00,
2013-04-01 18:12:00,44.0,14.0,30.17,North,6,5.0,8.0,29,0.00,,,0.00,,2013-04-01 23:12:00,
2013-04-01 18:22:00,44.0,14.0,30.16,North,354,5.0,5.0,29,0.00,,,0.00,,2013-04-01 23:22:00,
2013-04-01 18:32:00,44.0,14.0,30.16,North,354,5.0,5.0,29,0.00,,,0.00,,2013-04-01 23:32:00,
2013-04-01 18:43:00,44.0,14.0,30.16,North,354,5.0,5.0,29,0.00,,,0.00,,2013-04-01 23:43:00,
2013-04-01 18:52:00,43.0,13.0,30.16,North,1,6.0,8.0,29,0.00,,,0.00,,2013-04-01 23:52:00,
2013-04-01 19:03:00,43.0,13.0,30.16,North,1,6.0,8.0,29,0.00,,,0.00,,2013-04-02 00:03:00,
2013-04-01 19:12:00,43.0,13.0,30.16,North,1,6.0,8.0,29,0.00,,,0.00,,2013-04-02 00:12:00,
2013-04-01 19:22:00,43.0,14.0,30.16,NNW,348,5.0,6.0,30,0.00,,,0.00,,2013-04-02 00:22:00,
2013-04-01 19:33:00,43.0,14.0,30.16,NNW,348,5.0,6.0,30,0.00,,,0.00,,2013-04-02 00:33:00,
2013-04-01 19:42:00,43.0,14.0,30.16,NNW,348,5.0,6.0,30,0.00,,,0.00,,2013-04-02 00:42:00,
2013-04-01 19:52:00,42.0,14.0,30.16,North,358,5.0,6.0,32,0.00,,,0.00,,2013-04-02 00:52:00,
2013-04-01 20:02:00,42.0,14.0,30.16,North,358,5.0,6.0,32,0.00,,,0.00,,2013-04-02 01:02:00,
2013-04-01 20:12:00,42.0,14.0,30.16,North,358,5.0,6.0,32,0.00,,,0.00,,2013-04-02 01:12:00,
2013-04-01 20:22:00,41.0,15.0,30.16,North,1,3.0,4.0,34,0.00,,,0.00,,2013-04-02 01:22:00,
2013-04-01 20:32:00,41.0,15.0,30.16,North,1,3.0,4.0,34,0.00,,,0.00,,2013-04-02 01:32:00,
2013-04-01 20:42:00,41.0,15.0,30.16,North,1,3.0,4.0,34,0.00,,,0.00,,2013-04-02 01:42:00,
2013-04-01 20:52:00,40.0,15.0,30.17,North,1,3.0,5.0,36,0.00,,,0.00,,2013-04-02 01:52:00,
2013-04-01 21:03:00,40.0,15.0,30.17,North,1,3.0,5.0,36,0.00,,,0.00,,2013-04-02 02:03:00,
2013-04-01 21:12:00,40.0,15.0,30.17,North,1,3.0,5.0,36,0.00,,,0.00,,2013-04-02 02:12:00,
2013-04-01 21:22:00,39.0,16.0,30.19,North,358,3.0,3.0,39,0.00,,,0.00,,2013-04-02 02:22:00,
2013-04-01 21:32:00,39.0,16.0,30.19,North,358,3.0,3.0,39,0.00,,,0.00,,2013-04-02 02:32:00,
2013-04-01 21:42:00,39.0,16.0,30.19,North,358,3.0,3.0,39,0.00,,,0.00,,2013-04-02 02:42:00,
2013-04-01 21:52:00,38.0,15.0,30.20,North,355,3.0,4.0,39,0.00,,,0.00,,2013-04-02 02:52:00,
2013-04-01 22:02:00,38.0,15.0,30.20,North,355,3.0,4.0,39,0.00,,,0.00,,2013-04-02 03:02:00,
2013-04-01 22:12:00,38.0,15.0,30.20,North,355,3.0,4.0,39,0.00,,,0.00,,2013-04-02 03:12:00,
2013-04-01 22:22:00,37.0,16.0,30.22,North,355,2.0,3.0,41,0.00,,,0.00,,2013-04-02 03:22:00,
2013-04-01 22:33:00,37.0,16.0,30.22,North,355,2.0,3.0,41,0.00,,,0.00,,2013-04-02 03:33:00,
2013-04-01 22:43:00,37.0,16.0,30.22,North,355,2.0,3.0,41,0.00,,,0.00,,2013-04-02 03:43:00,
2013-04-01 22:53:00,36.0,16.0,30.22,North,355,3.0,3.0,44,0.00,,,0.00,,2013-04-02 03:53:00,
2013-04-01 23:03:00,36.0,16.0,30.22,North,355,3.0,3.0,44,0.00,,,0.00,,2013-04-02 04:03:00,
2013-04-01 23:13:00,36.0,16.0,30.22,North,355,3.0,3.0,44,0.00,,,0.00,,2013-04-02 04:13:00,
2013-04-01 23:22:00,36.0,16.0,30.23,North,355,2.0,3.0,44,0.00,,,0.00,,2013-04-02 04:22:00,
2013-04-01 23:32:00,36.0,16.0,30.23,North,355,2.0,3.0,44,0.00,,,0.00,,2013-04-02 04:32:00,
2013-04-01 23:43:00,36.0,16.0,30.23,North,355,2.0,3.0,44,0.00,,,0.00,,2013-04-02 04:43:00,
2013-04-01 23:52:00,35.0,15.0,30.24,North,355,3.0,3.0,44,0.00,,,0.00,,2013-04-02 04:52:00,